createdAt,value
2022-09-02T00:01:38.165Z,11.10
2022-09-02T00:04:18.566Z,11.00
2022-09-02T00:06:47.509Z,11.00
2022-09-02T00:09:16.747Z,11.00
2022-09-02T00:11:45.399Z,11.00
2022-09-02T00:14:21.035Z,10.90
2022-09-02T00:16:51.714Z,10.90
2022-09-02T00:19:24.403Z,10.80
2022-09-02T00:21:54.884Z,10.80
2022-09-02T00:24:23.039Z,10.70
2022-09-02T00:26:50.729Z,10.70
2022-09-02T00:29:23.538Z,10.70
2022-09-02T00:31:50.674Z,10.60
2022-09-02T00:34:17.776Z,10.60
2022-09-02T00:36:45.823Z,10.60
2022-09-02T00:39:13.162Z,10.60
2022-09-02T00:41:42.035Z,10.50
2022-09-02T00:44:13.158Z,10.60
2022-09-02T00:46:40.968Z,10.50
2022-09-02T00:49:30.101Z,10.50
2022-09-02T00:52:04.244Z,10.50
2022-09-02T00:54:34.905Z,10.50
2022-09-02T00:57:07.326Z,10.60
2022-09-02T00:59:48.791Z,10.60
2022-09-02T01:02:17.295Z,10.60
2022-09-02T01:04:46.786Z,10.50
2022-09-02T01:07:16.254Z,10.50
2022-09-02T01:09:43.638Z,10.50
2022-09-02T01:12:12.876Z,10.40
2022-09-02T01:14:39.878Z,10.30
2022-09-02T01:17:07.914Z,10.30
2022-09-02T01:19:46.012Z,10.30
2022-09-02T01:22:23.666Z,10.20
2022-09-02T01:24:50.735Z,10.30
2022-09-02T01:27:21.950Z,10.20
2022-09-02T01:29:57.965Z,10.30
2022-09-02T01:32:28.136Z,10.20
2022-09-02T01:34:55.760Z,10.20
2022-09-02T01:37:23.758Z,10.10
2022-09-02T01:39:52.372Z,10.10
2022-09-02T01:42:21.187Z,10.10
2022-09-02T01:44:48.852Z,10.00
2022-09-02T01:47:22.506Z,10.00
2022-09-02T01:49:51.039Z,10.00
2022-09-02T01:52:19.433Z,10.00
2022-09-02T01:54:46.767Z,10.00
2022-09-02T01:57:14.944Z,10.00
2022-09-02T01:59:44.733Z,10.00
2022-09-02T02:02:12.523Z,9.90
2022-09-02T02:04:41.564Z,9.90
2022-09-02T02:07:08.606Z,9.90
2022-09-02T02:09:35.690Z,9.90
2022-09-02T02:12:03.072Z,9.80
2022-09-02T02:14:30.656Z,9.80
2022-09-02T02:16:57.911Z,9.80
2022-09-02T02:19:24.870Z,9.90
2022-09-02T02:21:52.154Z,9.90
2022-09-02T02:24:19.663Z,9.80
2022-09-02T02:26:47.410Z,9.80
2022-09-02T02:29:15.337Z,9.80
2022-09-02T02:31:42.881Z,9.80
2022-09-02T02:34:10.697Z,9.70
2022-09-02T02:36:39.274Z,9.70
2022-09-02T02:39:09.736Z,9.70
2022-09-02T02:41:37.685Z,9.70
2022-09-02T02:44:05.646Z,9.60
2022-09-02T02:46:33.690Z,9.60
2022-09-02T02:49:01.240Z,9.60
2022-09-02T02:51:28.558Z,9.60
2022-09-02T02:53:58.713Z,9.50
2022-09-02T02:56:26.131Z,9.60
2022-09-02T02:58:53.110Z,9.60
2022-09-02T03:01:20.209Z,9.50
2022-09-02T03:03:47.506Z,9.60
2022-09-02T03:06:14.975Z,9.50
2022-09-02T03:08:42.478Z,9.60
2022-09-02T03:11:09.545Z,9.50
2022-09-02T03:13:37.310Z,9.50
2022-09-02T03:16:06.385Z,9.40
2022-09-02T03:18:35.841Z,9.30
2022-09-02T03:21:07.599Z,9.20
2022-09-02T03:23:34.871Z,9.10
2022-09-02T03:26:01.943Z,9.10
2022-09-02T03:28:29.074Z,9.10
2022-09-02T03:30:56.502Z,9.20
2022-09-02T03:33:23.646Z,9.30
2022-09-02T03:35:50.656Z,9.20
2022-09-02T03:38:17.669Z,9.20
2022-09-02T03:40:45.166Z,9.10
2022-09-02T03:43:12.465Z,9.10
2022-09-02T03:45:44.167Z,9.10
2022-09-02T03:48:13.186Z,9.10
2022-09-02T03:50:42.690Z,9.00
2022-09-02T03:53:11.632Z,9.00
2022-09-02T03:55:46.721Z,9.00
2022-09-02T03:58:18.579Z,8.90
2022-09-02T04:00:51.652Z,8.90
2022-09-02T04:03:19.184Z,8.80
2022-09-02T04:05:48.111Z,8.80
2022-09-02T04:08:15.158Z,8.70
2022-09-02T04:10:42.244Z,8.70
2022-09-02T04:13:09.346Z,8.70
2022-09-02T04:15:40.363Z,8.70
2022-09-02T04:18:08.569Z,8.70
2022-09-02T04:20:39.840Z,8.70
2022-09-02T04:23:07.339Z,8.70
2022-09-02T04:25:34.420Z,8.70
2022-09-02T04:28:01.391Z,8.70
2022-09-02T04:30:28.507Z,8.80
2022-09-02T04:32:55.480Z,8.80
2022-09-02T04:35:22.641Z,8.80
2022-09-02T04:37:49.602Z,8.70
2022-09-02T04:40:18.213Z,8.70
2022-09-02T04:42:45.596Z,8.70
2022-09-02T04:45:12.638Z,8.70
2022-09-02T04:47:39.624Z,8.70
2022-09-02T04:50:07.877Z,8.80
2022-09-02T04:52:35.017Z,8.70
2022-09-02T04:55:02.481Z,8.80
2022-09-02T04:57:29.525Z,8.90
2022-09-02T04:59:57.185Z,9.00
2022-09-02T05:02:24.380Z,9.00
2022-09-02T05:04:53.283Z,9.10
2022-09-02T05:07:20.325Z,9.10
2022-09-02T05:09:47.378Z,9.20
2022-09-02T05:12:18.726Z,9.20
2022-09-02T05:14:45.712Z,9.20
2022-09-02T05:17:14.312Z,9.30
2022-09-02T05:19:41.425Z,9.40
2022-09-02T05:22:08.453Z,9.40
2022-09-02T05:24:35.457Z,9.50
2022-09-02T05:27:02.447Z,9.60
2022-09-02T05:29:29.404Z,9.70
2022-09-02T05:32:03.363Z,9.80
2022-09-02T05:34:30.530Z,10.00
2022-09-02T05:37:04.470Z,10.00
2022-09-02T05:39:31.620Z,10.10
2022-09-02T05:41:59.873Z,10.30
2022-09-02T05:44:29.317Z,10.90
2022-09-02T05:46:56.344Z,12.50
2022-09-02T05:49:23.613Z,14.40
2022-09-02T05:51:53.301Z,16.80
2022-09-02T05:54:33.191Z,19.40
2022-09-02T05:57:05.064Z,20.00
2022-09-02T05:59:41.050Z,21.20
2022-09-02T06:02:10.588Z,22.80
2022-09-02T06:04:42.735Z,24.30
2022-09-02T06:07:09.928Z,25.50
2022-09-02T06:09:41.318Z,25.40
2022-09-02T06:12:08.874Z,25.20
2022-09-02T06:14:38.093Z,25.50
2022-09-02T06:17:06.536Z,25.80
2022-09-02T06:19:33.882Z,25.90
2022-09-02T06:22:02.786Z,25.70
2022-09-02T06:24:31.216Z,25.20
2022-09-02T06:26:59.584Z,25.10
2022-09-02T06:29:26.979Z,24.90
2022-09-02T06:31:54.513Z,25.00
2022-09-02T06:34:25.634Z,24.90
2022-09-02T06:36:53.106Z,24.90
2022-09-02T06:39:23.887Z,25.10
2022-09-02T06:41:50.943Z,25.70
2022-09-02T06:44:21.901Z,26.20
2022-09-02T06:46:57.287Z,26.20
2022-09-02T06:49:26.752Z,26.70
2022-09-02T06:51:56.486Z,27.60
2022-09-02T06:54:24.175Z,28.10
2022-09-02T06:56:51.545Z,28.10
2022-09-02T06:59:20.992Z,28.70
2022-09-02T07:01:49.186Z,29.30
2022-09-02T07:04:35.850Z,29.10
2022-09-02T07:07:06.391Z,29.00
2022-09-02T07:09:33.674Z,28.60
2022-09-02T07:12:05.050Z,28.10
2022-09-02T07:14:36.781Z,28.10
2022-09-02T07:17:04.031Z,28.50
2022-09-02T07:19:31.198Z,28.80
2022-09-02T07:21:59.523Z,28.50
2022-09-02T07:24:26.530Z,28.30
2022-09-02T07:26:55.875Z,28.20
2022-09-02T07:29:23.668Z,27.20
2022-09-02T07:31:51.096Z,26.40
2022-09-02T07:34:19.032Z,25.80
2022-09-02T07:36:47.075Z,26.70
2022-09-02T07:39:15.067Z,27.30
2022-09-02T07:41:47.596Z,27.50
2022-09-02T07:44:14.899Z,27.30
2022-09-02T07:46:42.213Z,27.50
2022-09-02T07:49:15.704Z,26.70
2022-09-02T07:51:50.909Z,26.00
2022-09-02T07:54:22.376Z,25.10
2022-09-02T07:56:49.966Z,24.50
2022-09-02T07:59:23.574Z,23.10
2022-09-02T08:01:51.579Z,22.20
2022-09-02T08:04:23.459Z,21.90
2022-09-02T08:07:00.692Z,21.90
2022-09-02T08:09:28.489Z,22.00
2022-09-02T08:11:55.837Z,22.10
2022-09-02T08:14:41.989Z,22.10
2022-09-02T08:17:10.316Z,21.60
2022-09-02T08:19:37.467Z,21.40
2022-09-02T08:22:08.728Z,21.40
2022-09-02T08:24:36.159Z,21.50
2022-09-02T08:27:03.302Z,21.90
2022-09-02T08:29:37.166Z,22.50
2022-09-02T08:32:04.692Z,22.10
2022-09-02T08:34:31.718Z,21.90
2022-09-02T08:37:00.857Z,21.70
2022-09-02T08:39:27.813Z,21.70
2022-09-02T08:44:29.995Z,21.20
2022-09-02T08:47:01.391Z,21.50
2022-09-02T08:49:40.627Z,22.10
2022-09-02T08:52:08.261Z,22.50
2022-09-02T08:54:47.703Z,22.40
2022-09-02T08:57:14.876Z,22.40
2022-09-02T08:59:43.948Z,22.60
2022-09-02T09:02:54.134Z,23.10
2022-09-02T09:05:34.573Z,23.30
2022-09-02T09:08:21.626Z,23.00
2022-09-02T09:10:58.190Z,22.90
2022-09-02T09:13:41.568Z,23.20
2022-09-02T09:16:16.516Z,22.90
2022-09-02T09:19:02.993Z,22.60
2022-09-02T09:21:32.101Z,22.10
2022-09-02T09:24:10.309Z,22.20
2022-09-02T09:26:41.118Z,22.30
2022-09-02T09:29:08.373Z,22.20
2022-09-02T09:31:36.448Z,21.80
2022-09-02T09:34:06.088Z,21.90
2022-09-02T09:36:42.306Z,22.30
2022-09-02T09:39:30.127Z,22.60
2022-09-02T09:41:57.456Z,23.00
2022-09-02T09:44:39.325Z,23.60
2022-09-02T09:47:11.751Z,23.50
2022-09-02T09:49:41.978Z,23.30
2022-09-02T09:52:10.069Z,23.40
2022-09-02T09:54:36.997Z,23.90
2022-09-02T09:57:17.995Z,23.90
2022-09-02T09:59:50.121Z,23.50
2022-09-02T10:02:23.036Z,23.40
2022-09-02T10:04:52.635Z,23.10
2022-09-02T10:07:41.287Z,22.70
2022-09-02T10:10:23.235Z,23.00
2022-09-02T10:12:52.603Z,23.40
2022-09-02T10:15:55.042Z,23.50
2022-09-02T10:19:17.105Z,23.90
2022-09-02T10:22:04.625Z,23.90
2022-09-02T10:24:59.205Z,24.30
2022-09-02T10:27:41.703Z,23.80
2022-09-02T10:30:14.270Z,23.90
2022-09-02T10:32:53.015Z,23.70
2022-09-02T10:35:40.850Z,23.90
2022-09-02T10:38:34.516Z,23.90
2022-09-02T10:41:26.442Z,24.40
2022-09-02T10:44:03.748Z,24.60
2022-09-02T10:46:51.127Z,24.30
2022-09-02T10:49:41.338Z,24.30
2022-09-02T10:52:27.149Z,24.10
2022-09-02T10:55:07.331Z,24.50
2022-09-02T10:57:58.531Z,24.70
2022-09-02T11:00:27.441Z,24.40
2022-09-02T11:03:26.587Z,24.50
2022-09-02T11:06:31.733Z,24.30
2022-09-02T11:12:05.883Z,24.00
2022-09-02T11:14:37.969Z,24.20
2022-09-02T11:17:39.258Z,24.80
2022-09-02T11:20:30.539Z,24.80
2022-09-02T11:23:15.909Z,24.70
2022-09-02T11:25:57.549Z,24.70
2022-09-02T11:28:31.703Z,24.60
2022-09-02T11:31:12.607Z,24.60
2022-09-02T11:33:56.561Z,24.70
2022-09-02T11:36:25.602Z,24.80
2022-09-02T11:39:04.839Z,24.90
2022-09-02T11:42:03.089Z,24.70
2022-09-02T11:45:11.529Z,24.80
2022-09-02T11:48:19.849Z,24.50
2022-09-02T11:50:46.881Z,24.90
2022-09-02T11:53:45.216Z,25.10
2022-09-02T11:56:19.853Z,25.50
2022-09-02T11:58:52.578Z,25.20
2022-09-02T12:01:31.097Z,25.30
2022-09-02T12:04:48.406Z,25.20
2022-09-02T12:07:08.579Z,24.90
2022-09-02T12:09:48.984Z,25.20
2022-09-02T12:12:42.032Z,25.30
2022-09-02T12:15:18.058Z,25.20
2022-09-02T12:17:49.979Z,25.20
2022-09-02T12:20:36.195Z,25.30
2022-09-02T12:23:03.737Z,25.60
2022-09-02T12:25:34.247Z,25.60
2022-09-02T12:28:26.453Z,25.70
2022-09-02T12:30:56.828Z,26.20
2022-09-02T12:33:41.906Z,26.20
2022-09-02T12:36:47.802Z,25.40
2022-09-02T12:39:38.820Z,25.40
2022-09-02T12:42:11.973Z,25.60
2022-09-02T12:45:03.213Z,25.50
2022-09-02T12:48:04.730Z,25.30
2022-09-02T12:51:04.191Z,25.60
2022-09-02T12:56:53.082Z,25.90
2022-09-02T12:59:50.787Z,25.50
2022-09-02T13:02:44.419Z,25.30
2022-09-02T13:05:15.385Z,25.40
2022-09-02T13:07:53.990Z,25.70
2022-09-02T13:10:43.235Z,25.90
2022-09-02T13:13:44.164Z,25.50
2022-09-02T13:16:47.680Z,25.20
2022-09-02T13:19:39.399Z,25.60
2022-09-02T13:22:34.553Z,25.60
2022-09-02T13:25:29.253Z,25.40
2022-09-02T13:28:25.066Z,25.10
2022-09-02T13:31:23.654Z,25.00
2022-09-02T13:34:11.759Z,24.70
2022-09-02T13:36:46.557Z,25.00
2022-09-02T13:39:28.759Z,25.00
2022-09-02T13:41:57.217Z,25.40
2022-09-02T13:44:25.516Z,25.50
2022-09-02T13:47:04.871Z,25.30
2022-09-02T13:49:38.353Z,25.30
2022-09-02T13:52:18.585Z,25.30
2022-09-02T13:55:00.039Z,25.40
2022-09-02T13:57:29.535Z,25.50
2022-09-02T13:59:57.314Z,25.30
2022-09-02T14:02:35.620Z,25.10
2022-09-02T14:05:25.263Z,24.90
2022-09-02T14:07:55.662Z,24.90
2022-09-02T14:10:27.364Z,25.00
2022-09-02T14:12:56.976Z,25.00
2022-09-02T14:15:27.423Z,24.80
2022-09-02T14:18:09.784Z,24.70
2022-09-02T14:20:39.273Z,24.80
2022-09-02T14:23:06.985Z,24.80
2022-09-02T14:25:38.684Z,24.70
2022-09-02T14:28:22.776Z,24.70
2022-09-02T14:39:52.949Z,24.60
2022-09-02T14:42:20.304Z,24.60
2022-09-02T14:44:47.937Z,24.50
2022-09-02T14:47:22.786Z,24.30
2022-09-02T14:49:53.804Z,24.40
2022-09-02T14:52:28.298Z,24.30
2022-09-02T14:54:57.177Z,24.10
2022-09-02T14:57:28.758Z,24.20
2022-09-02T15:00:22.022Z,24.30
2022-09-02T15:02:57.580Z,24.40
2022-09-02T15:05:25.117Z,24.50
2022-09-02T15:07:52.496Z,24.50
2022-09-02T15:10:19.696Z,24.50
2022-09-02T15:13:00.212Z,24.30
2022-09-02T15:15:36.447Z,24.00
2022-09-02T15:18:05.349Z,23.80
2022-09-02T15:20:36.364Z,24.00
2022-09-02T15:23:23.802Z,24.00
2022-09-02T15:25:54.499Z,23.80
2022-09-02T15:28:21.599Z,23.70
2022-09-02T15:30:52.029Z,23.50
2022-09-02T15:33:19.416Z,23.30
2022-09-02T15:35:47.623Z,23.40
2022-09-02T15:38:18.875Z,23.30
2022-09-02T15:40:46.135Z,23.30
2022-09-02T15:43:13.872Z,23.30
2022-09-02T15:45:50.080Z,23.10
2022-09-02T15:48:17.171Z,23.10
2022-09-02T15:50:46.337Z,23.00
2022-09-02T15:53:15.183Z,22.90
2022-09-02T15:55:42.391Z,22.90
2022-09-02T15:58:11.372Z,22.90
2022-09-02T16:00:41.628Z,22.90
2022-09-02T16:03:11.809Z,22.90
2022-09-02T16:05:43.651Z,22.70
2022-09-02T16:08:17.772Z,22.70
2022-09-02T16:10:45.345Z,22.60
2022-09-02T16:13:13.297Z,22.60
2022-09-02T16:15:42.804Z,22.50
2022-09-02T16:18:09.904Z,22.40
2022-09-02T16:20:39.699Z,22.40
2022-09-02T16:23:06.782Z,22.20
2022-09-02T16:25:34.787Z,22.20
2022-09-02T16:28:09.006Z,22.30
2022-09-02T16:30:36.875Z,22.30
2022-09-02T16:33:04.242Z,22.20
2022-09-02T16:35:38.065Z,22.10
2022-09-02T16:38:35.299Z,22.10
2022-09-02T16:41:02.888Z,22.00
2022-09-02T16:43:37.302Z,21.90
2022-09-02T16:46:06.354Z,21.90
2022-09-02T16:48:36.601Z,21.90
2022-09-02T16:51:14.943Z,21.80
2022-09-02T16:53:43.075Z,21.70
2022-09-02T16:56:15.513Z,21.60
2022-09-02T16:58:42.954Z,21.60
2022-09-02T17:01:14.711Z,21.50
2022-09-02T17:03:42.516Z,21.50
2022-09-02T17:06:24.771Z,21.40
2022-09-02T17:09:06.679Z,21.30
2022-09-02T17:16:58.626Z,20.90
2022-09-02T17:19:35.217Z,20.80
2022-09-02T17:22:02.944Z,20.70
2022-09-02T17:24:43.139Z,20.60
2022-09-02T17:27:16.810Z,20.50
2022-09-02T17:29:49.662Z,20.40
2022-09-02T17:32:22.222Z,20.30
2022-09-02T17:34:54.422Z,20.30
2022-09-02T17:37:23.472Z,20.30
2022-09-02T17:39:54.497Z,20.20
2022-09-02T17:42:25.262Z,20.10
2022-09-02T17:44:52.487Z,20.00
2022-09-02T17:47:27.990Z,19.90
2022-09-02T17:49:55.563Z,19.80
2022-09-02T17:52:25.011Z,19.60
2022-09-02T17:55:01.939Z,19.50
2022-09-02T17:58:06.583Z,19.50
2022-09-02T18:00:38.261Z,19.40
2022-09-02T18:03:21.980Z,19.30
2022-09-02T18:06:34.005Z,19.10
2022-09-02T18:09:03.825Z,19.00
2022-09-02T18:11:34.245Z,18.90
2022-09-02T18:14:59.047Z,18.90
2022-09-02T18:17:57.589Z,18.70
2022-09-02T18:20:42.106Z,18.70
2022-09-02T18:23:28.419Z,18.40
2022-09-02T18:25:59.067Z,18.20
2022-09-02T18:29:07.101Z,17.90
2022-09-02T18:31:50.151Z,17.70
2022-09-02T18:34:44.500Z,17.60
2022-09-02T18:37:37.427Z,17.50
2022-09-02T18:40:24.983Z,17.50
2022-09-02T18:43:02.399Z,17.50
2022-09-02T18:45:39.440Z,17.50
2022-09-02T18:48:12.281Z,17.50
2022-09-02T18:50:57.151Z,17.40
2022-09-02T18:53:39.935Z,17.40
2022-09-02T18:56:09.587Z,17.20
2022-09-02T18:58:45.612Z,17.00
2022-09-02T19:01:27.769Z,16.90
2022-09-02T19:03:59.200Z,16.80
2022-09-02T19:06:37.729Z,16.70
2022-09-02T19:09:08.098Z,16.60
2022-09-02T19:11:38.906Z,16.50
2022-09-02T19:14:08.765Z,16.50
2022-09-02T19:16:38.627Z,16.50
2022-09-02T19:19:06.742Z,16.40
2022-09-02T19:21:58.291Z,16.40
2022-09-02T19:24:35.530Z,16.30
2022-09-02T19:27:09.268Z,16.20
2022-09-02T19:29:41.679Z,16.10
2022-09-02T19:32:10.272Z,16.00
2022-09-02T19:34:42.134Z,15.90
2022-09-02T19:37:12.421Z,15.70
2022-09-02T19:39:39.672Z,15.60
2022-09-02T19:42:07.882Z,15.60
2022-09-02T19:44:35.928Z,15.60
2022-09-02T19:50:06.188Z,15.50
2022-09-02T19:52:44.572Z,15.50
2022-09-02T19:55:17.003Z,15.40
2022-09-02T19:57:44.874Z,15.30
2022-09-02T20:00:14.020Z,15.30
2022-09-02T20:02:41.634Z,15.30
2022-09-02T20:05:13.387Z,15.20
2022-09-02T20:07:41.095Z,15.10
2022-09-02T20:10:09.882Z,15.10
2022-09-02T20:12:37.262Z,15.10
2022-09-02T20:15:09.552Z,15.00
2022-09-02T20:17:36.879Z,14.90
2022-09-02T20:20:19.320Z,14.90
2022-09-02T20:22:55.544Z,14.80
2022-09-02T20:25:38.268Z,14.70
2022-09-02T20:28:06.058Z,14.70
2022-09-02T20:30:50.966Z,14.60
2022-09-02T20:33:22.583Z,14.60
2022-09-02T20:36:09.937Z,14.50
2022-09-02T20:42:46.492Z,14.40
2022-09-02T20:45:38.715Z,14.40
2022-09-02T20:52:16.065Z,14.20
2022-09-02T20:55:37.603Z,14.00
2022-09-02T20:58:46.404Z,14.00
2022-09-02T21:02:00.094Z,14.00
2022-09-02T21:05:06.859Z,13.90
2022-09-02T21:07:44.132Z,13.90
2022-09-02T21:10:32.951Z,13.90
2022-09-02T21:13:15.966Z,13.80
2022-09-02T21:16:33.440Z,13.70
2022-09-02T21:19:16.301Z,13.80
2022-09-02T21:25:18.220Z,13.60
2022-09-02T21:27:53.280Z,13.70
2022-09-02T21:30:26.557Z,13.50
2022-09-02T21:33:06.185Z,13.50
2022-09-02T21:35:44.597Z,13.50
2022-09-02T21:38:22.217Z,13.50
2022-09-02T21:45:06.034Z,13.50
2022-09-02T21:48:23.005Z,13.50
2022-09-02T21:51:02.436Z,13.40
2022-09-02T21:57:21.459Z,13.30
2022-09-02T21:59:59.359Z,13.30
2022-09-02T22:02:42.223Z,13.30
2022-09-02T22:08:40.596Z,13.30
2022-09-02T22:11:48.444Z,13.20
2022-09-02T22:14:24.561Z,13.10
2022-09-02T22:17:04.831Z,13.10
2022-09-02T22:20:20.241Z,13.10
2022-09-02T22:23:07.218Z,13.10
2022-09-02T22:25:38.864Z,13.10
2022-09-02T22:28:37.940Z,13.10
2022-09-02T22:31:11.393Z,13.10
2022-09-02T22:37:04.932Z,13.10
2022-09-02T22:39:59.049Z,13.10
2022-09-02T22:42:38.686Z,13.10
2022-09-02T22:45:42.675Z,13.10
2022-09-02T22:48:41.388Z,13.00
2022-09-02T22:51:58.371Z,13.00
2022-09-02T22:54:33.701Z,12.90
2022-09-02T22:57:18.736Z,12.90
2022-09-02T23:03:18.061Z,12.80
2022-09-02T23:05:53.914Z,12.80
2022-09-02T23:08:40.635Z,12.70
2022-09-02T23:11:46.341Z,12.60
2022-09-02T23:14:29.242Z,12.50
2022-09-02T23:17:24.130Z,12.50
2022-09-02T23:20:11.782Z,12.50
2022-09-02T23:23:07.373Z,12.50
2022-09-02T23:26:10.001Z,12.40
2022-09-02T23:32:24.493Z,12.50
2022-09-02T23:38:20.629Z,12.30
2022-09-02T23:41:13.801Z,12.30
2022-09-02T23:43:44.863Z,12.10
2022-09-02T23:46:47.968Z,12.10
2022-09-02T23:49:48.931Z,12.10
2022-09-02T23:56:10.029Z,12.10
2022-09-02T23:58:37.623Z,12.10
